Time;durP1;ratioP1;P1;durP2;ratioP2;P2;SDS_P1;SDS_P2;PMS_P1;PMS_P2;Temp;Humidity;BMP_temperature;BMP_pressure;BME280_temperature;BME280_humidity;BME280_pressure;Samples;Min_cycle;Max_cycle;Signal;HPM_P1;HPM_P2
2021/11/06 00:01:47;;;;;;;1.67;0.60;;;;;;;10.99;100.00;101598.38;5000379;28;20033;-63
2021/11/06 00:04:12;;;;;;;0.52;0.50;;;;;;;11.02;100.00;101603.88;5011057;28;20026;-63
2021/11/06 00:06:39;;;;;;;0.40;0.40;;;;;;;10.93;100.00;101602.38;5012543;28;20092;-63
2021/11/06 00:09:05;;;;;;;0.73;0.52;;;;;;;10.88;100.00;101598.78;5011632;28;20061;-63
2021/11/06 00:11:31;;;;;;;0.98;0.80;;;;;;;10.90;100.00;101599.25;5010543;28;20498;-63
2021/11/06 00:13:57;;;;;;;0.47;0.40;;;;;;;10.92;100.00;101598.13;5014588;28;20443;-63
2021/11/06 00:16:22;;;;;;;0.75;0.52;;;;;;;10.89;100.00;101603.06;5014080;28;20041;-63
2021/11/06 00:18:48;;;;;;;1.42;0.60;;;;;;;10.83;100.00;101600.91;5014448;28;20469;-63
2021/11/06 00:21:13;;;;;;;1.23;1.13;;;;;;;10.97;100.00;101612.19;5014221;28;20236;-64
2021/11/06 00:23:39;;;;;;;2.40;0.73;;;;;;;10.99;100.00;101606.44;5012799;28;20080;-64
2021/11/06 00:26:04;;;;;;;0.63;0.50;;;;;;;10.97;100.00;101609.47;5012328;28;20034;-64
2021/11/06 00:28:29;;;;;;;1.05;0.60;;;;;;;10.95;100.00;101609.03;4999510;28;20113;-64
2021/11/06 00:30:55;;;;;;;3.20;0.50;;;;;;;10.98;100.00;101608.34;5011487;28;20085;-63
2021/11/06 00:33:20;;;;;;;0.70;0.57;;;;;;;11.01;100.00;101615.78;5001843;28;20476;-63
2021/11/06 00:35:46;;;;;;;2.03;0.80;;;;;;;10.97;100.00;101609.47;5008374;28;20531;-64
2021/11/06 00:38:11;;;;;;;2.50;0.55;;;;;;;10.97;100.00;101608.69;5007880;28;20034;-64
2021/11/06 00:40:37;;;;;;;2.65;0.73;;;;;;;11.03;100.00;101623.53;5011804;28;20058;-64
2021/11/06 00:43:02;;;;;;;0.88;0.45;;;;;;;10.95;100.00;101621.72;5012382;28;20365;-64
2021/11/06 00:45:28;;;;;;;1.60;0.65;;;;;;;10.98;100.00;101621.81;4999350;28;20301;-64
2021/11/06 00:47:54;;;;;;;4.00;0.90;;;;;;;10.98;100.00;101623.72;5012204;28;20037;-64
2021/11/06 00:50:19;;;;;;;0.50;0.50;;;;;;;10.96;100.00;101623.25;5010364;28;20163;-63
2021/11/06 00:52:46;;;;;;;3.22;0.50;;;;;;;10.92;100.00;101625.84;5002846;28;20121;-64
2021/11/06 00:55:13;;;;;;;2.28;1.13;;;;;;;10.88;100.00;101628.41;5010362;28;20033;-64
2021/11/06 00:57:39;;;;;;;2.47;0.52;;;;;;;10.82;100.00;101620.88;5012947;28;20156;-64
2021/11/06 01:00:10;;;;;;;1.13;0.60;;;;;;;10.91;100.00;101624.28;5019683;28;20125;-64
2021/11/06 01:02:37;;;;;;;0.73;0.32;;;;;;;10.91;100.00;101613.50;5013926;28;20045;-64
2021/11/06 01:05:05;;;;;;;0.50;0.50;;;;;;;10.92;100.00;101619.69;5008076;28;20045;-64
2021/11/06 01:07:30;;;;;;;0.45;0.45;;;;;;;10.88;100.00;101620.34;5007080;28;20034;-64
2021/11/06 01:09:56;;;;;;;0.95;0.65;;;;;;;10.94;100.00;101625.53;5014285;28;20048;-64
2021/11/06 01:12:21;;;;;;;0.40;0.40;;;;;;;10.86;100.00;101616.38;4994833;28;20037;-62
2021/11/06 01:14:47;;;;;;;0.80;0.50;;;;;;;10.88;100.00;101616.84;4997798;28;20080;-64
2021/11/06 01:17:13;;;;;;;0.50;0.40;;;;;;;10.90;100.00;101622.69;5012165;28;20022;-64
2021/11/06 01:19:38;;;;;;;1.17;0.55;;;;;;;10.96;100.00;101631.34;5005730;28;20033;-63
2021/11/06 01:22:04;;;;;;;1.55;0.40;;;;;;;10.90;100.00;101617.31;5010456;28;20045;-63
2021/11/06 01:24:29;;;;;;;3.25;0.52;;;;;;;10.97;100.00;101624.84;5014824;28;20038;-63
2021/11/06 01:26:55;;;;;;;1.85;0.80;;;;;;;10.94;100.00;101626.31;5010451;28;20065;-64
2021/11/06 01:29:21;;;;;;;2.13;0.40;;;;;;;10.82;100.00;101627.06;5005464;28;20077;-64
2021/11/06 01:31:47;;;;;;;0.60;0.40;;;;;;;10.89;100.00;101635.41;5010421;28;20073;-62
2021/11/06 01:34:13;;;;;;;3.78;0.55;;;;;;;10.94;100.00;101636.31;5003412;28;20030;-63
2021/11/06 01:36:38;;;;;;;2.08;0.50;;;;;;;10.93;100.00;101626.63;5008220;28;20117;-63
2021/11/06 01:39:04;;;;;;;0.85;0.70;;;;;;;10.90;100.00;101628.09;5003502;28;20124;-64
2021/11/06 01:41:30;;;;;;;0.40;0.40;;;;;;;10.88;100.00;101623.03;5005735;28;20048;-64
2021/11/06 01:43:55;;;;;;;0.40;0.40;;;;;;;10.92;100.00;101630.47;5013960;28;20038;-64
2021/11/06 01:46:21;;;;;;;0.73;0.40;;;;;;;10.93;100.00;101632.81;5011416;28;20048;-64
2021/11/06 01:48:46;;;;;;;1.73;0.77;;;;;;;10.92;100.00;101636.63;5011164;28;20065;-64
2021/11/06 01:51:12;;;;;;;1.90;0.68;;;;;;;10.93;100.00;101618.56;5008399;28;20053;-64
2021/11/06 01:53:37;;;;;;;1.08;0.43;;;;;;;10.85;100.00;101621.00;5013264;28;20038;-64
2021/11/06 01:56:03;;;;;;;1.27;0.82;;;;;;;10.87;100.00;101631.47;5006759;28;20113;-63
2021/11/06 01:58:30;;;;;;;1.42;0.50;;;;;;;10.90;100.00;101620.78;5013921;28;20034;-63
2021/11/06 02:00:57;;;;;;;1.67;0.60;;;;;;;11.03;100.00;101627.03;5009556;28;20056;-64
2021/11/06 02:03:23;;;;;;;0.70;0.40;;;;;;;11.06;100.00;101623.66;5010205;28;20128;-63
2021/11/06 02:05:50;;;;;;;0.35;0.35;;;;;;;10.98;100.00;101624.53;5004704;28;20622;-63
2021/11/06 02:08:16;;;;;;;0.50;0.50;;;;;;;10.96;100.00;101620.56;5010448;28;20080;-64
2021/11/06 02:10:42;;;;;;;0.32;0.32;;;;;;;10.95;100.00;101617.13;5010707;28;20152;-64
2021/11/06 02:13:08;;;;;;;1.25;0.80;;;;;;;10.99;100.00;101617.22;5010897;28;20109;-64
2021/11/06 02:15:35;;;;;;;0.32;0.30;;;;;;;11.03;100.00;101610.06;5006414;28;20099;-64
2021/11/06 02:18:01;;;;;;;0.32;0.32;;;;;;;10.92;100.00;101611.59;5009942;28;20105;-64
2021/11/06 02:20:26;;;;;;;0.52;0.50;;;;;;;10.95;100.00;101614.41;5023067;28;20060;-64
2021/11/06 02:22:52;;;;;;;1.92;0.45;;;;;;;10.91;100.00;101616.19;5019752;28;20500;-63
2021/11/06 02:25:18;;;;;;;4.15;1.05;;;;;;;11.00;100.00;101616.09;5008154;28;20480;-64
2021/11/06 02:27:45;;;;;;;0.73;0.52;;;;;;;11.00;100.00;101613.41;5010050;28;20072;-64
2021/11/06 02:30:13;;;;;;;0.60;0.38;;;;;;;10.95;100.00;101613.63;5003165;28;20042;-64
2021/11/06 02:32:39;;;;;;;0.40;0.38;;;;;;;10.96;100.00;101623.25;5016837;28;20034;-64
2021/11/06 02:35:06;;;;;;;0.77;0.32;;;;;;;10.93;100.00;101616.66;5006992;28;20033;-63
2021/11/06 02:37:32;;;;;;;2.47;0.73;;;;;;;10.97;100.00;101619.47;5010245;28;20034;-63
2021/11/06 02:39:58;;;;;;;0.60;0.32;;;;;;;10.97;100.00;101622.16;5011508;28;20124;-62
2021/11/06 02:42:23;;;;;;;0.57;0.55;;;;;;;11.00;100.00;101619.59;5014636;28;20092;-64
2021/11/06 02:44:49;;;;;;;0.35;0.35;;;;;;;10.90;100.00;101620.00;5010006;28;20034;-64
2021/11/06 02:47:14;;;;;;;0.30;0.30;;;;;;;10.84;100.00;101624.03;5011402;28;20065;-63
2021/11/06 02:49:40;;;;;;;3.35;0.60;;;;;;;10.93;100.00;101619.34;5006127;28;20083;-64
2021/11/06 02:52:06;;;;;;;2.40;0.50;;;;;;;11.00;100.00;101627.66;5009092;28;20033;-64
2021/11/06 02:54:32;;;;;;;1.40;0.70;;;;;;;10.97;100.00;101622.16;5010240;28;20125;-64
2021/11/06 02:56:57;;;;;;;0.60;0.60;;;;;;;10.97;100.00;101624.84;5005483;28;20104;-66
2021/11/06 02:59:23;;;;;;;3.22;0.63;;;;;;;11.00;100.00;101626.88;5022626;28;20033;-63
2021/11/06 03:01:49;;;;;;;1.58;0.50;;;;;;;10.90;100.00;101622.69;5011226;28;20034;-64
2021/11/06 03:04:15;;;;;;;1.42;0.63;;;;;;;10.94;100.00;101622.84;4998391;28;20041;-64
2021/11/06 03:06:41;;;;;;;1.08;0.70;;;;;;;10.88;100.00;101619.53;5005414;28;20044;-63
2021/11/06 03:09:08;;;;;;;5.28;0.52;;;;;;;10.88;100.00;101620.34;5019159;28;20106;-64
2021/11/06 03:11:35;;;;;;;0.55;0.52;;;;;;;10.85;100.00;101615.63;5016351;28;20487;-63
2021/11/06 03:14:01;;;;;;;0.75;0.75;;;;;;;10.88;100.00;101624.94;5002926;28;20489;-63
2021/11/06 03:16:27;;;;;;;1.55;0.63;;;;;;;10.92;100.00;101619.69;5003641;28;20321;-62
2021/11/06 03:18:52;;;;;;;0.60;0.50;;;;;;;11.03;100.00;101610.06;5010231;28;20400;-64
2021/11/06 03:21:20;;;;;;;2.17;0.65;;;;;;;10.97;100.00;101617.56;5007163;28;20484;-63
2021/11/06 03:23:45;;;;;;;0.77;0.77;;;;;;;10.99;100.00;101606.44;5008720;28;20041;-63
2021/11/06 03:26:11;;;;;;;6.38;0.88;;;;;;;11.03;100.00;101615.44;5010219;28;20056;-64
2021/11/06 03:28:37;;;;;;;1.65;0.77;;;;;;;11.03;100.00;101623.53;5004891;28;20034;-64
2021/11/06 03:31:03;;;;;;;2.72;0.77;;;;;;;10.82;100.00;101620.88;5006399;28;20064;-64
2021/11/06 03:33:28;;;;;;;1.00;0.90;;;;;;;10.83;100.00;101619.75;5006122;28;20037;-64
2021/11/06 03:35:54;;;;;;;3.33;0.80;;;;;;;10.92;100.00;101617.75;5009792;28;20021;-64
2021/11/06 03:38:20;;;;;;;5.97;0.93;;;;;;;10.94;100.00;101612.81;5014381;28;20161;-63
2021/11/06 03:40:45;;;;;;;1.73;0.68;;;;;;;10.84;100.00;101616.72;5009110;28;20112;-64
2021/11/06 03:43:11;;;;;;;0.73;0.60;;;;;;;10.90;100.00;101610.00;5005565;28;20200;-64
2021/11/06 03:45:36;;;;;;;1.58;0.88;;;;;;;10.95;100.00;101619.00;5009059;28;20025;-64
2021/11/06 03:48:02;;;;;;;2.35;1.00;;;;;;;10.85;100.00;101607.53;5011396;28;20040;-64
2021/11/06 03:50:28;;;;;;;1.92;0.90;;;;;;;10.85;100.00;101612.94;5006988;28;20049;-64
2021/11/06 03:52:53;;;;;;;1.27;0.70;;;;;;;10.88;100.00;101606.88;5004625;28;20124;-64
2021/11/06 03:55:19;;;;;;;2.28;0.90;;;;;;;10.91;100.00;101610.81;5013644;28;20045;-64
2021/11/06 03:57:44;;;;;;;1.25;1.00;;;;;;;10.90;100.00;101609.22;5009104;28;20468;-64
2021/11/06 04:00:12;;;;;;;0.85;0.60;;;;;;;10.88;100.00;101603.38;4996667;28;20034;-64
2021/11/06 04:02:38;;;;;;;1.73;1.00;;;;;;;10.89;100.00;101604.97;5007859;28;20522;-64
2021/11/06 04:05:04;;;;;;;1.92;1.25;;;;;;;10.78;100.00;101601.13;5014935;28;20037;-64
2021/11/06 04:07:30;;;;;;;1.60;1.00;;;;;;;10.74;100.00;101587.50;5023298;28;20045;-64
2021/11/06 04:09:55;;;;;;;1.05;0.80;;;;;;;10.70;100.00;101608.16;4999341;28;20427;-64
2021/11/06 04:12:21;;;;;;;5.45;1.13;;;;;;;10.75;100.00;101602.56;5007830;28;20073;-63
2021/11/06 04:14:46;;;;;;;4.13;1.27;;;;;;;10.73;100.00;101604.81;5013151;28;20036;-64
2021/11/06 04:17:12;;;;;;;1.98;1.20;;;;;;;10.79;100.00;101610.78;5013779;28;20382;-64
2021/11/06 04:19:38;;;;;;;1.52;1.13;;;;;;;10.77;100.00;101623.78;5000018;28;20037;-64
2021/11/06 04:22:04;;;;;;;3.35;1.00;;;;;;;10.77;100.00;101615.69;5012220;28;20492;-63
2021/11/06 04:24:29;;;;;;;2.35;1.02;;;;;;;10.79;100.00;101622.34;5022487;28;20028;-63
2021/11/06 04:26:55;;;;;;;1.45;0.95;;;;;;;10.84;100.00;101619.44;5024155;28;20045;-64
2021/11/06 04:29:20;;;;;;;2.38;1.40;;;;;;;10.79;100.00;101616.94;5012132;28;20104;-63
2021/11/06 04:31:46;;;;;;;2.40;1.00;;;;;;;10.72;100.00;101611.28;5017147;28;20045;-64
2021/11/06 04:34:12;;;;;;;2.60;1.33;;;;;;;10.84;100.00;101619.44;5005188;28;20085;-64
2021/11/06 04:36:37;;;;;;;5.93;1.10;;;;;;;10.81;100.00;101616.63;5007439;28;20029;-64
2021/11/06 04:39:03;;;;;;;3.53;1.00;;;;;;;10.86;100.00;101617.19;5008491;28;20036;-63
2021/11/06 04:41:29;;;;;;;3.58;1.30;;;;;;;10.84;100.00;101619.44;5005868;28;20042;-64
2021/11/06 04:43:54;;;;;;;7.78;1.75;;;;;;;10.91;100.00;101618.91;5010057;28;20491;-63
2021/11/06 04:46:19;;;;;;;3.88;1.50;;;;;;;10.97;100.00;101614.06;5012515;28;20038;-64
2021/11/06 04:48:45;;;;;;;2.45;1.45;;;;;;;10.89;100.00;101621.94;5008873;28;20396;-63
2021/11/06 04:51:10;;;;;;;6.80;2.53;;;;;;;10.92;100.00;101625.06;5012337;28;20041;-63
2021/11/06 04:53:36;;;;;;;2.85;1.60;;;;;;;10.83;100.00;101619.75;5015781;28;20053;-64
2021/11/06 04:56:02;;;;;;;3.13;1.60;;;;;;;10.84;100.00;101624.03;5006099;28;20446;-64
2021/11/06 04:58:27;;;;;;;2.53;1.52;;;;;;;10.72;100.00;101621.31;5011621;28;20025;-64
2021/11/06 05:00:53;;;;;;;2.58;1.55;;;;;;;10.72;100.00;101622.06;5015647;28;20117;-64
2021/11/06 05:03:18;;;;;;;2.15;1.38;;;;;;;10.79;100.00;101622.34;5014485;28;20022;-64
2021/11/06 05:05:44;;;;;;;1.90;1.65;;;;;;;10.79;100.00;101622.34;5024466;28;20042;-64
2021/11/06 05:08:11;;;;;;;8.52;1.52;;;;;;;10.83;100.00;101627.84;5017730;28;20036;-64
2021/11/06 05:10:37;;;;;;;7.93;1.40;;;;;;;10.74;100.00;101622.53;5006583;28;20068;-64
2021/11/06 05:13:03;;;;;;;4.03;1.30;;;;;;;10.68;100.00;101637.31;5011844;28;20065;-64
2021/11/06 05:15:30;;;;;;;6.15;1.80;;;;;;;10.64;100.00;101633.75;5005969;28;20048;-64
2021/11/06 05:17:56;;;;;;;2.08;1.40;;;;;;;10.63;100.00;101640.22;5005200;28;20036;-64
2021/11/06 05:20:22;;;;;;;4.07;1.95;;;;;;;10.69;100.00;101635.41;5010733;28;20100;-64
2021/11/06 05:22:47;;;;;;;2.80;1.38;;;;;;;10.72;100.00;101640.94;5011237;28;20026;-63
2021/11/06 05:25:13;;;;;;;2.65;1.65;;;;;;;10.77;100.00;101638.06;5015550;28;20546;-64
2021/11/06 05:27:38;;;;;;;3.05;1.60;;;;;;;10.71;100.00;101633.19;5011300;28;20030;-64
2021/11/06 05:30:07;;;;;;;2.80;2.03;;;;;;;10.65;100.00;101639.88;5008262;28;20510;-64
2021/11/06 05:32:35;;;;;;;3.55;1.60;;;;;;;10.65;100.00;101631.81;5009347;28;20409;-64
2021/11/06 05:35:01;;;;;;;3.90;1.90;;;;;;;10.74;100.00;101629.84;5010621;28;20033;-64
2021/11/06 05:37:27;;;;;;;3.17;2.10;;;;;;;10.78;100.00;101631.53;5008420;28;20092;-64
2021/11/06 05:39:53;;;;;;;3.03;1.83;;;;;;;10.80;100.00;101629.28;5013037;28;20112;-64
2021/11/06 05:42:19;;;;;;;3.22;2.10;;;;;;;10.76;100.00;101631.06;5011108;28;20137;-64
2021/11/06 05:44:44;;;;;;;3.33;2.22;;;;;;;10.74;100.00;101636.00;5001987;28;20065;-64
2021/11/06 05:47:10;;;;;;;4.85;1.85;;;;;;;10.73;100.00;101623.66;5010544;28;20048;-63
2021/11/06 05:49:35;;;;;;;3.95;2.20;;;;;;;10.70;100.00;101624.31;5008008;28;20104;-64
2021/11/06 05:52:01;;;;;;;3.28;2.15;;;;;;;10.70;100.00;101626.25;5002695;28;20138;-63
2021/11/06 05:54:26;;;;;;;3.78;2.03;;;;;;;10.56;100.00;101623.03;5005932;28;20030;-64
2021/11/06 05:56:52;;;;;;;3.65;2.17;;;;;;;10.63;100.00;101618.69;5001355;28;20540;-64
2021/11/06 05:59:17;;;;;;;5.80;2.50;;;;;;;10.68;100.00;101629.25;5022793;28;20034;-64
2021/11/06 06:01:43;;;;;;;4.32;2.10;;;;;;;10.71;100.00;101635.88;5006186;28;20100;-64
2021/11/06 06:04:08;;;;;;;8.38;2.63;;;;;;;10.74;100.00;101636.00;5015899;28;20071;-64
2021/11/06 06:06:34;;;;;;;6.40;2.45;;;;;;;10.64;100.00;101625.66;5015384;28;20396;-63
2021/11/06 06:09:00;;;;;;;6.32;2.60;;;;;;;10.62;100.00;101632.47;5013500;28;20492;-63
2021/11/06 06:11:25;;;;;;;3.63;2.33;;;;;;;10.62;100.00;101632.47;5005179;28;20611;-63
2021/11/06 06:13:50;;;;;;;3.88;2.58;;;;;;;10.55;100.00;101635.69;5006495;28;20033;-64
2021/11/06 06:16:16;;;;;;;4.00;2.38;;;;;;;10.50;100.00;101645.88;5010976;28;20241;-63
2021/11/06 06:18:45;;;;;;;5.22;2.78;;;;;;;10.53;100.00;101643.31;5002789;28;20049;-63
2021/11/06 06:21:10;;;;;;;8.85;2.75;;;;;;;10.59;100.00;101642.00;4993077;28;20030;-64
2021/11/06 06:23:36;;;;;;;5.65;2.78;;;;;;;10.59;100.00;101641.22;5040357;23;20399;-65
2021/11/06 06:26:01;;;;;;;5.28;2.75;;;;;;;10.56;100.00;101636.50;5047592;28;20040;-64
2021/11/06 06:28:27;;;;;;;4.93;2.97;;;;;;;10.53;100.00;101637.16;5045746;28;20040;-65
2021/11/06 06:30:52;;;;;;;4.82;2.38;;;;;;;10.44;100.00;101636.44;5047289;28;20048;-66
2021/11/06 06:33:18;;;;;;;6.40;2.90;;;;;;;10.48;100.00;101640.84;5049758;28;20112;-65
2021/11/06 06:35:43;;;;;;;6.40;3.05;;;;;;;10.49;100.00;101647.78;5048324;28;20097;-65
2021/11/06 06:38:09;;;;;;;4.30;2.28;;;;;;;10.44;100.00;101656.06;5041302;28;20519;-65
2021/11/06 06:40:34;;;;;;;5.03;2.33;;;;;;;10.45;100.00;101651.47;5046698;28;20033;-65
2021/11/06 06:43:00;;;;;;;5.60;3.10;;;;;;;10.40;100.00;101657.84;5041870;28;20098;-64
2021/11/06 06:45:25;;;;;;;5.35;2.90;;;;;;;10.51;100.00;101656.31;5049813;28;20041;-66
2021/11/06 06:47:51;;;;;;;6.13;2.42;;;;;;;10.50;100.00;101659.34;5047275;28;20061;-66
2021/11/06 06:50:17;;;;;;;4.90;2.42;;;;;;;10.51;100.00;101659.00;5047800;28;20037;-66
2021/11/06 06:52:42;;;;;;;5.55;2.72;;;;;;;10.53;100.00;101662.16;5043678;28;20075;-65
2021/11/06 06:55:08;;;;;;;6.70;3.10;;;;;;;10.61;100.00;101661.31;5048677;28;20032;-64
2021/11/06 06:57:34;;;;;;;5.75;3.05;;;;;;;10.61;100.00;101669.41;5046463;28;20036;-65
2021/11/06 07:00:00;;;;;;;3.85;2.08;;;;;;;10.57;100.00;101668.47;5046665;28;20043;-66
2021/11/06 07:02:26;;;;;;;5.25;2.72;;;;;;;10.69;100.00;101670.44;5049782;28;20468;-65
2021/11/06 07:04:51;;;;;;;5.80;3.20;;;;;;;10.68;100.00;101674.28;5030383;28;20048;-65
2021/11/06 07:07:17;;;;;;;6.38;2.47;;;;;;;10.64;100.00;101668.75;5043820;28;20045;-65
2021/11/06 07:09:42;;;;;;;5.07;2.65;;;;;;;10.68;100.00;101676.97;5046068;28;20063;-64
2021/11/06 07:12:08;;;;;;;7.03;3.17;;;;;;;10.70;100.00;101675.50;5048610;28;20036;-65
2021/11/06 07:14:34;;;;;;;5.85;2.60;;;;;;;10.70;100.00;101677.41;5049494;28;20080;-65
2021/11/06 07:16:59;;;;;;;5.80;2.58;;;;;;;10.66;100.00;101692.66;5045293;28;20040;-64
2021/11/06 07:19:25;;;;;;;4.45;2.70;;;;;;;10.70;100.00;101682.81;5042527;28;20039;-65
2021/11/06 07:21:51;;;;;;;5.85;2.67;;;;;;;10.68;100.00;101679.66;5042956;28;20029;-64
2021/11/06 07:24:16;;;;;;;7.88;3.35;;;;;;;10.72;100.00;101670.56;5046354;28;20571;-66
2021/11/06 07:26:42;;;;;;;5.97;2.92;;;;;;;10.77;100.00;101680.34;5048008;28;20025;-66
2021/11/06 07:29:07;;;;;;;5.25;3.10;;;;;;;10.79;100.00;101680.81;5044170;28;20514;-65
2021/11/06 07:31:33;;;;;;;5.05;2.78;;;;;;;10.75;100.00;101679.91;5047086;28;20411;-65
2021/11/06 07:33:58;;;;;;;6.50;2.80;;;;;;;10.67;100.00;101683.44;5045214;28;20183;-65
2021/11/06 07:36:24;;;;;;;4.80;2.65;;;;;;;10.66;100.00;101690.75;5048496;28;20945;-65
2021/11/06 07:38:50;;;;;;;7.80;2.67;;;;;;;10.72;100.00;101680.56;5049291;28;20037;-65
2021/11/06 07:41:16;;;;;;;8.75;3.72;;;;;;;10.69;100.00;101692.00;5048721;28;20362;-64
2021/11/06 07:43:42;;;;;;;5.55;2.70;;;;;;;10.65;100.00;101697.25;5042669;28;20160;-65
2021/11/06 07:46:08;;;;;;;6.35;3.40;;;;;;;10.64;100.00;101689.50;5049273;28;20033;-65
2021/11/06 07:48:34;;;;;;;7.30;3.60;;;;;;;10.65;100.00;101693.75;5049548;28;20041;-65
2021/11/06 07:50:59;;;;;;;5.15;2.40;;;;;;;10.74;100.00;101684.50;5041629;28;20050;-65
2021/11/06 07:53:25;;;;;;;8.40;3.83;;;;;;;10.77;100.00;101683.06;5053129;28;20090;-65
2021/11/06 07:55:51;;;;;;;7.40;3.45;;;;;;;10.75;100.00;101685.28;5048663;28;20088;-65
2021/11/06 07:58:17;;;;;;;10.15;3.78;;;;;;;10.84;100.00;101677.91;5044881;28;20399;-65
2021/11/06 08:00:42;;;;;;;11.05;4.15;;;;;;;10.77;100.00;101686.53;5041054;28;20025;-65
2021/11/06 08:03:08;;;;;;;7.03;3.63;;;;;;;10.79;100.00;101678.91;5047504;28;20094;-66
2021/11/06 08:05:35;;;;;;;8.18;3.50;;;;;;;10.79;100.00;101680.81;5047326;28;20037;-65
2021/11/06 08:08:01;;;;;;;11.27;4.60;;;;;;;10.79;100.00;101678.13;5048672;28;20029;-65
2021/11/06 08:10:27;;;;;;;9.13;3.80;;;;;;;10.84;100.00;101684.09;5047026;28;20108;-66
2021/11/06 08:12:54;;;;;;;10.63;4.57;;;;;;;10.75;100.00;101672.63;5048228;28;20040;-65
2021/11/06 08:15:20;;;;;;;9.75;4.40;;;;;;;10.82;100.00;101678.25;5048356;28;20037;-65
2021/11/06 08:17:46;;;;;;;11.90;4.47;;;;;;;10.84;100.00;101673.31;5045447;28;20435;-65
2021/11/06 08:20:12;;;;;;;10.18;4.97;;;;;;;10.86;100.00;101673.78;5046496;28;20107;-65
2021/11/06 08:22:37;;;;;;;16.63;5.78;;;;;;;10.85;100.00;101677.59;5047186;28;20033;-65
2021/11/06 08:25:05;;;;;;;10.95;4.85;;;;;;;10.85;100.00;101679.50;5047879;28;20029;-65
2021/11/06 08:27:31;;;;;;;15.15;5.63;;;;;;;10.87;100.00;101661.09;5025986;28;20040;-65
2021/11/06 08:29:57;;;;;;;10.18;5.20;;;;;;;10.95;100.00;101654.84;5045444;28;20029;-66
2021/11/06 08:32:22;;;;;;;8.52;3.92;;;;;;;10.89;100.00;101666.94;5046450;28;20545;-66
2021/11/06 08:34:48;;;;;;;10.63;4.30;;;;;;;11.06;100.00;101669.47;5049584;28;20523;-64
2021/11/06 08:37:14;;;;;;;11.25;4.93;;;;;;;11.10;100.00;101666.88;5051382;28;20035;-66
2021/11/06 08:39:40;;;;;;;10.68;4.78;;;;;;;11.15;100.00;101661.31;5050467;28;20483;-65
2021/11/06 08:42:06;;;;;;;9.35;4.43;;;;;;;11.08;100.00;101655.66;5043297;23;20053;-65
2021/11/06 08:44:31;;;;;;;13.43;5.85;;;;;;;11.12;100.00;101665.44;5010332;28;20132;-65
2021/11/06 08:46:57;;;;;;;16.27;5.47;;;;;;;11.13;100.00;101679.72;5005630;28;20040;-64
2021/11/06 08:49:23;;;;;;;12.45;5.55;;;;;;;11.08;100.00;101672.63;5005963;28;20496;-65
2021/11/06 08:51:50;;;;;;;11.90;4.90;;;;;;;11.09;100.00;101671.47;5005818;28;20076;-66
2021/11/06 08:54:17;;;;;;;11.13;4.63;;;;;;;11.10;100.00;101666.88;4976061;28;20126;-65
2021/11/06 08:56:43;;;;;;;12.02;4.72;;;;;;;11.00;100.00;101670.78;4975036;28;20488;-66
2021/11/06 08:59:15;;;;;;;14.70;5.82;;;;;;;11.10;100.00;101664.19;4978845;28;20027;-66
2021/11/06 09:01:42;;;;;;;12.18;5.60;;;;;;;11.14;100.00;101667.81;4964796;28;20033;-65
2021/11/06 09:04:08;;;;;;;13.93;4.95;;;;;;;11.15;100.00;101661.31;4979115;28;20551;-65
2021/11/06 09:06:34;;;;;;;11.48;4.97;;;;;;;11.22;100.00;101666.94;4976331;28;20035;-65
2021/11/06 09:09:06;;;;;;;14.25;4.93;;;;;;;11.24;100.00;101670.06;4974636;28;20038;-66
2021/11/06 09:11:32;;;;;;;11.00;5.15;;;;;;;11.21;100.00;101678.81;4983110;28;20038;-65
2021/11/06 09:13:57;;;;;;;13.45;5.45;;;;;;;11.13;100.00;101679.72;4973667;28;20107;-66
2021/11/06 09:16:23;;;;;;;19.75;5.35;;;;;;;11.21;100.00;101676.13;4972215;28;20092;-65
2021/11/06 09:18:53;;;;;;;11.68;5.28;;;;;;;11.31;100.00;101675.69;4973403;28;20154;-65
2021/11/06 09:21:21;;;;;;;13.77;6.30;;;;;;;11.35;100.00;101687.41;4973186;28;20966;-65
2021/11/06 09:23:48;;;;;;;14.48;5.82;;;;;;;11.33;100.00;101668.06;4970655;28;20093;-65
2021/11/06 09:26:15;;;;;;;14.10;5.40;;;;;;;11.28;100.00;101676.38;4974908;28;20039;-65
2021/11/06 09:28:42;;;;;;;13.77;5.65;;;;;;;11.26;100.00;101668.63;4974763;28;20026;-66
2021/11/06 09:31:13;;;;;;;11.80;4.93;;;;;;;11.28;100.00;101669.09;4975113;28;20045;-65
2021/11/06 09:33:40;;;;;;;11.30;4.95;;;;;;;11.32;100.00;101666.50;4976490;28;20058;-65
2021/11/06 09:36:06;;;;;;;14.73;6.43;;;;;;;11.37;100.00;101668.97;4977856;28;20038;-65
2021/11/06 09:38:32;;;;;;;11.50;5.90;;;;;;;11.38;100.00;101673.25;4992945;28;20080;-65
2021/11/06 09:41:02;;;;;;;13.07;5.35;;;;;;;11.31;100.00;101671.09;4987832;28;20684;-65
2021/11/06 09:43:28;;;;;;;12.97;6.10;;;;;;;11.41;100.00;101684.16;4978935;28;20125;-65
2021/11/06 09:45:56;;;;;;;11.27;5.55;;;;;;;11.39;100.00;101686.41;4979799;28;20109;-65
2021/11/06 09:48:29;;;;;;;13.05;5.55;;;;;;;11.49;100.00;101685.19;4982990;28;20054;-65
2021/11/06 09:50:59;;;;;;;11.88;4.93;;;;;;;11.49;100.00;101683.28;4980891;28;20042;-65
2021/11/06 09:53:29;;;;;;;15.27;6.50;;;;;;;11.56;100.00;101683.50;4987788;28;20061;-65
2021/11/06 09:55:56;;;;;;;12.30;5.20;;;;;;;11.53;100.00;101681.50;4983983;28;20045;-65
2021/11/06 09:58:21;;;;;;;11.93;5.70;;;;;;;11.49;100.00;101675.19;4975996;28;20511;-65
2021/11/06 10:00:47;;;;;;;12.98;5.18;;;;;;;11.53;100.00;101676.09;4975835;28;20034;-65
2021/11/06 10:03:14;;;;;;;16.05;6.63;;;;;;;11.56;100.00;101667.31;4978039;28;20050;-65
2021/11/06 10:05:46;;;;;;;14.82;5.32;;;;;;;11.59;100.00;101665.88;4979402;28;20396;-65
2021/11/06 10:08:35;;;;;;;14.50;6.05;;;;;;;11.58;100.00;101672.38;4976123;28;20484;-65
2021/11/06 10:11:05;;;;;;;16.85;6.38;;;;;;;11.60;100.00;101667.44;4982615;28;20440;-65
2021/11/06 10:13:32;;;;;;;13.75;5.40;;;;;;;11.54;100.00;101674.97;4979770;28;20053;-65
2021/11/06 10:15:59;;;;;;;12.95;5.95;;;;;;;11.60;100.00;101675.53;4985855;28;20051;-64
2021/11/06 10:18:29;;;;;;;10.60;5.45;;;;;;;11.61;100.00;101669.03;4983575;28;20030;-65
2021/11/06 10:21:04;;;;;;;17.98;5.93;;;;;;;11.65;100.00;101670.72;4984711;28;20097;-65
2021/11/06 10:23:32;;;;;;;12.07;5.18;;;;;;;11.62;100.00;101657.09;4982916;28;20484;-65
2021/11/06 10:26:24;;;;;;;11.63;4.90;;;;;;;11.73;100.00;101660.94;4981328;28;20026;-65
2021/11/06 10:29:02;;;;;;;15.23;6.38;;;;;;;11.88;100.00;101646.00;4967085;28;20058;-65
2021/11/06 10:31:27;;;;;;;14.80;6.72;;;;;;;11.86;99.93;101646.34;4984027;28;20101;-64
2021/11/06 10:33:53;;;;;;;13.70;5.85;;;;;;;11.76;100.00;101649.50;4987678;28;20512;-65
2021/11/06 10:36:22;;;;;;;14.32;6.45;;;;;;;11.69;100.00;101651.97;4989472;28;20030;-64
2021/11/06 10:39:05;;;;;;;10.85;5.15;;;;;;;11.66;100.00;101648.03;4983462;28;20034;-65
2021/11/06 10:41:33;;;;;;;9.90;4.47;;;;;;;11.61;100.00;101642.03;4979561;28;20034;-65
2021/11/06 10:43:58;;;;;;;16.90;5.85;;;;;;;11.77;100.00;101649.16;4982978;28;20034;-64
2021/11/06 10:46:28;;;;;;;18.77;6.50;;;;;;;11.79;100.00;101638.00;4986032;28;20041;-65
2021/11/06 10:48:55;;;;;;;12.52;5.95;;;;;;;11.76;100.00;101639.50;4981820;28;20034;-64
2021/11/06 10:51:21;;;;;;;13.85;5.10;;;;;;;11.70;100.00;101630.03;4979413;28;20041;-64
2021/11/06 10:53:56;;;;;;;13.20;6.40;;;;;;;11.70;100.00;101640.84;4985899;28;20057;-64
2021/11/06 10:56:24;;;;;;;16.67;6.15;;;;;;;11.82;100.00;101631.94;4980539;28;20067;-64
2021/11/06 10:58:52;;;;;;;10.88;4.80;;;;;;;11.75;100.00;101629.00;4980010;28;20548;-65
2021/11/06 11:01:24;;;;;;;12.43;5.75;;;;;;;11.81;100.00;101622.25;4979927;28;20031;-65
2021/11/06 11:03:50;;;;;;;11.93;5.65;;;;;;;11.89;100.00;101631.34;4983726;28;20129;-65
2021/11/06 11:06:28;;;;;;;13.70;6.38;;;;;;;11.80;100.00;101612.59;4982028;28;20154;-65
2021/11/06 11:08:56;;;;;;;14.40;6.53;;;;;;;11.76;100.00;101611.72;4980049;28;20035;-65
2021/11/06 11:11:24;;;;;;;13.23;6.15;;;;;;;11.81;100.00;101610.69;4971282;28;20141;-65